sensor_id;sensor_type;location;lat;lon;timestamp;pressure;altitude;pressure_sealevel;temperature;humidity
61026;BME280;46911;32.650;-16.902;2023-10-31T00:00:25;100875.72;;;18.17;100.00
61026;BME280;46911;32.650;-16.902;2023-10-31T00:02:26;100879.31;;;18.17;100.00
61026;BME280;46911;32.650;-16.902;2023-10-31T00:04:29;100868.09;;;18.12;100.00
61026;BME280;46911;32.650;-16.902;2023-10-31T00:06:30;100880.53;;;18.23;100.00
61026;BME280;46911;32.650;-16.902;2023-10-31T00:08:33;100874.41;;;18.31;100.00
61026;BME280;46911;32.650;-16.902;2023-10-31T00:10:37;100874.91;;;18.34;100.00
61026;BME280;46911;32.650;-16.902;2023-10-31T00:12:40;100873.25;;;18.33;100.00
61026;BME280;46911;32.650;-16.902;2023-10-31T00:14:41;100881.34;;;18.33;100.00
61026;BME280;46911;32.650;-16.902;2023-10-31T00:16:44;100894.53;;;18.36;100.00
61026;BME280;46911;32.650;-16.902;2023-10-31T00:18:45;100903.31;;;18.38;100.00
61026;BME280;46911;32.650;-16.902;2023-10-31T00:20:47;100888.81;;;18.39;100.00
61026;BME280;46911;32.650;-16.902;2023-10-31T00:22:50;100878.56;;;18.43;100.00
61026;BME280;46911;32.650;-16.902;2023-10-31T00:24:53;100883.81;;;18.45;100.00
61026;BME280;46911;32.650;-16.902;2023-10-31T00:26:54;100875.72;;;18.45;100.00
61026;BME280;46911;32.650;-16.902;2023-10-31T00:28:57;100875.63;;;18.36;100.00
61026;BME280;46911;32.650;-16.902;2023-10-31T00:31:00;100884.13;;;18.42;100.00
61026;BME280;46911;32.650;-16.902;2023-10-31T00:33:02;100860.25;;;18.37;100.00
61026;BME280;46911;32.650;-16.902;2023-10-31T00:35:05;100860.50;;;18.44;100.00
61026;BME280;46911;32.650;-16.902;2023-10-31T00:37:06;100869.63;;;18.43;100.00
61026;BME280;46911;32.650;-16.902;2023-10-31T00:39:07;100866.22;;;18.40;100.00
61026;BME280;46911;32.650;-16.902;2023-10-31T00:41:11;100851.63;;;18.33;100.00
61026;BME280;46911;32.650;-16.902;2023-10-31T00:43:14;100842.66;;;18.33;100.00
61026;BME280;46911;32.650;-16.902;2023-10-31T00:45:18;100841.53;;;18.35;100.00
61026;BME280;46911;32.650;-16.902;2023-10-31T00:47:21;100818.53;;;18.31;100.00
61026;BME280;46911;32.650;-16.902;2023-10-31T00:49:24;100810.81;;;18.36;100.00
61026;BME280;46911;32.650;-16.902;2023-10-31T00:51:25;100798.78;;;18.31;100.00
61026;BME280;46911;32.650;-16.902;2023-10-31T00:53:28;100788.44;;;18.26;100.00
61026;BME280;46911;32.650;-16.902;2023-10-31T00:55:32;100772.94;;;18.28;100.00
61026;BME280;46911;32.650;-16.902;2023-10-31T00:57:33;100738.84;;;18.27;100.00
61026;BME280;46911;32.650;-16.902;2023-10-31T00:59:38;100714.47;;;18.19;100.00
61026;BME280;46911;32.650;-16.902;2023-10-31T01:01:40;100704.34;;;18.21;100.00
61026;BME280;46911;32.650;-16.902;2023-10-31T01:03:41;100701.78;;;18.19;100.00
61026;BME280;46911;32.650;-16.902;2023-10-31T01:05:43;100691.88;;;18.20;100.00
61026;BME280;46911;32.650;-16.902;2023-10-31T01:07:46;100686.47;;;18.20;100.00
61026;BME280;46911;32.650;-16.902;2023-10-31T01:09:47;100679.03;;;18.22;100.00
61026;BME280;46911;32.650;-16.902;2023-10-31T01:11:49;100692.78;;;18.29;100.00
61026;BME280;46911;32.650;-16.902;2023-10-31T01:13:55;100661.19;;;18.29;100.00
61026;BME280;46911;32.650;-16.902;2023-10-31T01:16:01;100674.00;;;18.45;100.00
61026;BME280;46911;32.650;-16.902;2023-10-31T01:18:05;100689.41;;;18.53;100.00
61026;BME280;46911;32.650;-16.902;2023-10-31T01:20:09;100701.91;;;18.54;100.00
61026;BME280;46911;32.650;-16.902;2023-10-31T01:22:10;100713.31;;;18.66;100.00
61026;BME280;46911;32.650;-16.902;2023-10-31T01:24:13;100721.72;;;18.81;100.00
61026;BME280;46911;32.650;-16.902;2023-10-31T01:26:14;100711.94;;;18.88;100.00
61026;BME280;46911;32.650;-16.902;2023-10-31T01:28:21;100706.94;;;18.93;100.00
61026;BME280;46911;32.650;-16.902;2023-10-31T01:30:24;100704.88;;;18.87;100.00
61026;BME280;46911;32.650;-16.902;2023-10-31T01:32:25;100707.03;;;19.01;100.00
61026;BME280;46911;32.650;-16.902;2023-10-31T01:34:26;100704.00;;;19.04;100.00
61026;BME280;46911;32.650;-16.902;2023-10-31T01:36:30;100696.56;;;19.06;100.00
61026;BME280;46911;32.650;-16.902;2023-10-31T01:38:31;100699.94;;;19.09;100.00
61026;BME280;46911;32.650;-16.902;2023-10-31T01:40:34;100692.84;;;19.07;100.00
61026;BME280;46911;32.650;-16.902;2023-10-31T01:42:39;100688.97;;;19.10;100.00
61026;BME280;46911;32.650;-16.902;2023-10-31T01:44:41;100694.75;;;19.15;100.00
61026;BME280;46911;32.650;-16.902;2023-10-31T01:46:42;100690.50;;;19.13;99.65
61026;BME280;46911;32.650;-16.902;2023-10-31T01:48:43;100709.13;;;19.24;99.34
61026;BME280;46911;32.650;-16.902;2023-10-31T01:50:44;100714.63;;;19.32;97.76
61026;BME280;46911;32.650;-16.902;2023-10-31T01:52:46;100718.34;;;19.39;97.41
61026;BME280;46911;32.650;-16.902;2023-10-31T01:54:47;100727.31;;;19.40;98.42
61026;BME280;46911;32.650;-16.902;2023-10-31T01:56:54;100732.72;;;19.40;99.08
61026;BME280;46911;32.650;-16.902;2023-10-31T01:58:56;100739.47;;;19.36;99.99
61026;BME280;46911;32.650;-16.902;2023-10-31T02:01:00;100743.34;;;19.33;99.84
61026;BME280;46911;32.650;-16.902;2023-10-31T02:03:02;100742.78;;;19.21;100.00
61026;BME280;46911;32.650;-16.902;2023-10-31T02:05:03;100754.78;;;19.19;100.00
61026;BME280;46911;32.650;-16.902;2023-10-31T02:07:05;100746.16;;;19.23;100.00
61026;BME280;46911;32.650;-16.902;2023-10-31T02:09:08;100764.22;;;19.15;100.00
61026;BME280;46911;32.650;-16.902;2023-10-31T02:11:11;100763.84;;;19.10;100.00
61026;BME280;46911;32.650;-16.902;2023-10-31T02:13:15;100756.72;;;19.09;100.00
61026;BME280;46911;32.650;-16.902;2023-10-31T02:15:16;100767.88;;;19.05;100.00
61026;BME280;46911;32.650;-16.902;2023-10-31T02:17:17;100744.63;;;18.95;100.00
61026;BME280;46911;32.650;-16.902;2023-10-31T02:19:21;100743.94;;;18.93;100.00
61026;BME280;46911;32.650;-16.902;2023-10-31T02:21:25;100764.25;;;18.97;100.00
61026;BME280;46911;32.650;-16.902;2023-10-31T02:23:29;100757.47;;;18.93;100.00
61026;BME280;46911;32.650;-16.902;2023-10-31T02:25:35;100758.50;;;19.00;100.00
61026;BME280;46911;32.650;-16.902;2023-10-31T02:27:36;100758.72;;;19.06;100.00
61026;BME280;46911;32.650;-16.902;2023-10-31T02:29:39;100752.38;;;19.16;100.00
61026;BME280;46911;32.650;-16.902;2023-10-31T02:31:42;100750.03;;;19.21;100.00
61026;BME280;46911;32.650;-16.902;2023-10-31T02:33:43;100732.47;;;19.25;99.82
61026;BME280;46911;32.650;-16.902;2023-10-31T02:35:44;100740.13;;;19.30;99.34
61026;BME280;46911;32.650;-16.902;2023-10-31T02:37:45;100744.41;;;19.40;99.33
61026;BME280;46911;32.650;-16.902;2023-10-31T02:39:47;100738.66;;;19.44;97.63
61026;BME280;46911;32.650;-16.902;2023-10-31T02:41:51;100732.25;;;19.45;97.16
61026;BME280;46911;32.650;-16.902;2023-10-31T02:43:52;100738.66;;;19.44;96.91
61026;BME280;46911;32.650;-16.902;2023-10-31T02:45:58;100753.91;;;19.53;96.15
61026;BME280;46911;32.650;-16.902;2023-10-31T02:48:01;100755.78;;;19.52;97.40
61026;BME280;46911;32.650;-16.902;2023-10-31T02:50:02;100752.56;;;19.49;97.21
61026;BME280;46911;32.650;-16.902;2023-10-31T02:52:03;100741.72;;;19.49;97.61
61026;BME280;46911;32.650;-16.902;2023-10-31T02:54:04;100724.84;;;19.55;96.70
61026;BME280;46911;32.650;-16.902;2023-10-31T02:56:06;100725.16;;;19.52;94.95
61026;BME280;46911;32.650;-16.902;2023-10-31T02:58:07;100704.84;;;19.48;95.38
61026;BME280;46911;32.650;-16.902;2023-10-31T03:00:08;100699.44;;;19.48;96.75
61026;BME280;46911;32.650;-16.902;2023-10-31T03:02:10;100709.63;;;19.54;95.81
61026;BME280;46911;32.650;-16.902;2023-10-31T03:04:12;100698.47;;;19.57;96.04
61026;BME280;46911;32.650;-16.902;2023-10-31T03:06:13;100703.22;;;19.55;95.76
61026;BME280;46911;32.650;-16.902;2023-10-31T03:08:18;100698.47;;;19.57;96.41
61026;BME280;46911;32.650;-16.902;2023-10-31T03:10:21;100702.19;;;19.56;94.92
61026;BME280;46911;32.650;-16.902;2023-10-31T03:12:24;100700.84;;;19.60;95.02
61026;BME280;46911;32.650;-16.902;2023-10-31T03:14:25;100710.16;;;19.57;96.25
61026;BME280;46911;32.650;-16.902;2023-10-31T03:16:26;100714.38;;;19.60;96.33
61026;BME280;46911;32.650;-16.902;2023-10-31T03:18:30;100699.34;;;19.57;96.95
61026;BME280;46911;32.650;-16.902;2023-10-31T03:20:31;100680.41;;;19.57;96.70
61026;BME280;46911;32.650;-16.902;2023-10-31T03:22:31;100650.63;;;19.57;96.00
61026;BME280;46911;32.650;-16.902;2023-10-31T03:24:32;100660.41;;;19.58;96.23
61026;BME280;46911;32.650;-16.902;2023-10-31T03:26:33;100694.59;;;19.60;96.77
61026;BME280;46911;32.650;-16.902;2023-10-31T03:28:38;100700.84;;;19.60;97.14
61026;BME280;46911;32.650;-16.902;2023-10-31T03:30:39;100688.66;;;19.56;97.72
61026;BME280;46911;32.650;-16.902;2023-10-31T03:32:43;100697.13;;;19.61;97.59
61026;BME280;46911;32.650;-16.902;2023-10-31T03:34:44;100695.41;;;19.52;98.08
61026;BME280;46911;32.650;-16.902;2023-10-31T03:36:45;100715.03;;;19.54;98.49
61026;BME280;46911;32.650;-16.902;2023-10-31T03:38:49;100705.56;;;19.50;99.18
61026;BME280;46911;32.650;-16.902;2023-10-31T03:40:50;100710.63;;;19.53;99.13
61026;BME280;46911;32.650;-16.902;2023-10-31T03:42:52;100710.63;;;19.53;99.42
61026;BME280;46911;32.650;-16.902;2023-10-31T03:44:54;100718.75;;;19.53;99.76
61026;BME280;46911;32.650;-16.902;2023-10-31T03:46:55;100731.59;;;19.51;100.00
61026;BME280;46911;32.650;-16.902;2023-10-31T03:48:56;100721.25;;;19.46;100.00
61026;BME280;46911;32.650;-16.902;2023-10-31T03:51:00;100719.56;;;19.45;100.00
61026;BME280;46911;32.650;-16.902;2023-10-31T03:53:00;100726.03;;;19.52;100.00
61026;BME280;46911;32.650;-16.902;2023-10-31T03:55:04;100717.03;;;19.52;100.00
61026;BME280;46911;32.650;-16.902;2023-10-31T03:57:08;100707.94;;;19.53;100.00
61026;BME280;46911;32.650;-16.902;2023-10-31T03:59:11;100695.94;;;19.55;100.00
61026;BME280;46911;32.650;-16.902;2023-10-31T04:01:12;100661.94;;;19.53;100.00
61026;BME280;46911;32.650;-16.902;2023-10-31T04:03:15;100654.50;;;19.55;100.00
61026;BME280;46911;32.650;-16.902;2023-10-31T04:05:16;100683.56;;;19.53;100.00
61026;BME280;46911;32.650;-16.902;2023-10-31T04:07:19;100697.63;;;19.56;100.00
61026;BME280;46911;32.650;-16.902;2023-10-31T04:09:25;100704.75;;;19.57;99.92
61026;BME280;46911;32.650;-16.902;2023-10-31T04:11:28;100697.47;;;19.58;99.92
61026;BME280;46911;32.650;-16.902;2023-10-31T04:13:32;100708.94;;;19.60;100.00
61026;BME280;46911;32.650;-16.902;2023-10-31T04:15:36;100707.66;;;19.64;100.00
61026;BME280;46911;32.650;-16.902;2023-10-31T04:17:37;100705.78;;;19.65;99.96
61026;BME280;46911;32.650;-16.902;2023-10-31T04:19:38;100712.53;;;19.61;97.92
61026;BME280;46911;32.650;-16.902;2023-10-31T04:21:41;100719.94;;;19.58;98.78
61026;BME280;46911;32.650;-16.902;2023-10-31T04:23:42;100725.56;;;19.65;98.52
61026;BME280;46911;32.650;-16.902;2023-10-31T04:25:43;100727.94;;;19.68;98.11
61026;BME280;46911;32.650;-16.902;2023-10-31T04:27:44;100737.94;;;19.76;98.35
61026;BME280;46911;32.650;-16.902;2023-10-31T04:29:45;100732.69;;;19.74;97.95
61026;BME280;46911;32.650;-16.902;2023-10-31T04:31:46;100742.03;;;19.80;97.67
61026;BME280;46911;32.650;-16.902;2023-10-31T04:33:50;100749.84;;;19.83;97.41
61026;BME280;46911;32.650;-16.902;2023-10-31T04:35:51;100761.38;;;19.94;97.06
61026;BME280;46911;32.650;-16.902;2023-10-31T04:37:56;100766.75;;;19.85;96.87
61026;BME280;46911;32.650;-16.902;2023-10-31T04:39:57;100771.50;;;19.83;97.50
61026;BME280;46911;32.650;-16.902;2023-10-31T04:41:58;100768.09;;;19.81;97.85
61026;BME280;46911;32.650;-16.902;2023-10-31T04:43:59;100753.34;;;19.76;98.37
61026;BME280;46911;32.650;-16.902;2023-10-31T04:46:00;100746.56;;;19.71;99.51
61026;BME280;46911;32.650;-16.902;2023-10-31T04:48:01;100750.97;;;19.72;100.00
61026;BME280;46911;32.650;-16.902;2023-10-31T04:50:02;100757.84;;;19.67;100.00
61026;BME280;46911;32.650;-16.902;2023-10-31T04:52:03;100761.91;;;19.63;100.00
61026;BME280;46911;32.650;-16.902;2023-10-31T04:54:05;100764.41;;;19.56;100.00
61026;BME280;46911;32.650;-16.902;2023-10-31T04:56:12;100738.31;;;19.47;100.00
61026;BME280;46911;32.650;-16.902;2023-10-31T04:58:14;100757.97;;;19.49;100.00
61026;BME280;46911;32.650;-16.902;2023-10-31T05:00:15;100751.38;;;19.51;100.00
61026;BME280;46911;32.650;-16.902;2023-10-31T05:02:16;100745.81;;;19.53;100.00
61026;BME280;46911;32.650;-16.902;2023-10-31T05:04:17;100742.56;;;19.49;100.00
61026;BME280;46911;32.650;-16.902;2023-10-31T05:06:20;100744.09;;;19.52;100.00
61026;BME280;46911;32.650;-16.902;2023-10-31T05:08:21;100741.56;;;19.50;100.00
61026;BME280;46911;32.650;-16.902;2023-10-31T05:10:25;100735.63;;;19.47;100.00
61026;BME280;46911;32.650;-16.902;2023-10-31T05:12:26;100734.41;;;19.41;100.00
61026;BME280;46911;32.650;-16.902;2023-10-31T05:14:27;100732.25;;;19.45;100.00
61026;BME280;46911;32.650;-16.902;2023-10-31T05:16:28;100719.88;;;19.42;100.00
61026;BME280;46911;32.650;-16.902;2023-10-31T05:18:29;100719.72;;;19.44;100.00
61026;BME280;46911;32.650;-16.902;2023-10-31T05:20:29;100727.31;;;19.40;100.00
61026;BME280;46911;32.650;-16.902;2023-10-31T05:22:33;100714.63;;;19.32;100.00
61026;BME280;46911;32.650;-16.902;2023-10-31T05:24:34;100712.75;;;19.33;100.00
61026;BME280;46911;32.650;-16.902;2023-10-31T05:26:35;100723.22;;;19.36;100.00
61026;BME280;46911;32.650;-16.902;2023-10-31T05:28:35;100719.84;;;19.34;100.00
61026;BME280;46911;32.650;-16.902;2023-10-31T05:30:36;100719.00;;;19.33;100.00
61026;BME280;46911;32.650;-16.902;2023-10-31T05:32:38;100711.03;;;19.32;100.00
61026;BME280;46911;32.650;-16.902;2023-10-31T05:34:41;100713.59;;;19.33;100.00
61026;BME280;46911;32.650;-16.902;2023-10-31T05:36:45;100708.03;;;19.35;100.00
61026;BME280;46911;32.650;-16.902;2023-10-31T05:38:51;100703.78;;;19.32;100.00
61026;BME280;46911;32.650;-16.902;2023-10-31T05:40:52;100714.28;;;19.35;100.00
61026;BME280;46911;32.650;-16.902;2023-10-31T05:42:53;100721.69;;;19.33;100.00
61026;BME280;46911;32.650;-16.902;2023-10-31T05:44:54;100715.28;;;19.34;100.00
61026;BME280;46911;32.650;-16.902;2023-10-31T05:46:55;100713.13;;;19.38;100.00
61026;BME280;46911;32.650;-16.902;2023-10-31T05:48:56;100712.56;;;19.34;100.00
61026;BME280;46911;32.650;-16.902;2023-10-31T05:50:57;100716.28;;;19.33;100.00
61026;BME280;46911;32.650;-16.902;2023-10-31T05:52:58;100731.72;;;19.41;100.00
61026;BME280;46911;32.650;-16.902;2023-10-31T05:55:02;100725.81;;;19.37;100.00
61026;BME280;46911;32.650;-16.902;2023-10-31T05:57:05;100738.13;;;19.40;100.00
61026;BME280;46911;32.650;-16.902;2023-10-31T05:59:06;100748.44;;;19.36;100.00
61026;BME280;46911;32.650;-16.902;2023-10-31T06:01:10;100740.31;;;19.36;100.00
61026;BME280;46911;32.650;-16.902;2023-10-31T06:03:11;100743.69;;;19.38;100.00
61026;BME280;46911;32.650;-16.902;2023-10-31T06:05:14;100738.63;;;19.35;100.00
61026;BME280;46911;32.650;-16.902;2023-10-31T06:07:15;100733.22;;;19.35;100.00
61026;BME280;46911;32.650;-16.902;2023-10-31T06:09:16;100734.25;;;19.43;100.00
61026;BME280;46911;32.650;-16.902;2023-10-31T06:11:20;100729.22;;;19.48;100.00
61026;BME280;46911;32.650;-16.902;2023-10-31T06:13:24;100724.28;;;19.43;100.00
61026;BME280;46911;32.650;-16.902;2023-10-31T06:15:28;100716.81;;;19.37;100.00
61026;BME280;46911;32.650;-16.902;2023-10-31T06:17:29;100734.41;;;19.41;100.00
61026;BME280;46911;32.650;-16.902;2023-10-31T06:19:35;100726.97;;;19.35;100.00
61026;BME280;46911;32.650;-16.902;2023-10-31T06:21:39;100739.00;;;19.40;100.00
61026;BME280;46911;32.650;-16.902;2023-10-31T06:23:40;100746.09;;;19.42;100.00
61026;BME280;46911;32.650;-16.902;2023-10-31T06:25:43;100754.22;;;19.42;100.00
61026;BME280;46911;32.650;-16.902;2023-10-31T06:27:47;100739.47;;;19.36;100.00
61026;BME280;46911;32.650;-16.902;2023-10-31T06:29:48;100750.19;;;19.46;100.00
61026;BME280;46911;32.650;-16.902;2023-10-31T06:31:49;100756.44;;;19.46;100.00
61026;BME280;46911;32.650;-16.902;2023-10-31T06:33:52;100750.47;;;19.43;100.00
61026;BME280;46911;32.650;-16.902;2023-10-31T06:35:53;100745.94;;;19.43;100.00
61026;BME280;46911;32.650;-16.902;2023-10-31T06:37:55;100748.47;;;19.45;100.00
61026;BME280;46911;32.650;-16.902;2023-10-31T06:40:00;100757.25;;;19.47;100.00
61026;BME280;46911;32.650;-16.902;2023-10-31T06:42:01;100755.22;;;19.40;100.00
61026;BME280;46911;32.650;-16.902;2023-10-31T06:44:02;100758.59;;;19.43;100.00
61026;BME280;46911;32.650;-16.902;2023-10-31T06:46:05;100769.41;;;19.43;100.00
61026;BME280;46911;32.650;-16.902;2023-10-31T06:48:06;100769.94;;;19.46;100.00
61026;BME280;46911;32.650;-16.902;2023-10-31T06:50:09;100765.38;;;19.47;100.00
61026;BME280;46911;32.650;-16.902;2023-10-31T06:52:10;100760.63;;;19.40;100.00
61026;BME280;46911;32.650;-16.902;2023-10-31T06:54:11;100777.06;;;19.47;100.00
61026;BME280;46911;32.650;-16.902;2023-10-31T06:56:12;100765.38;;;19.47;100.00
61026;BME280;46911;32.650;-16.902;2023-10-31T06:58:14;100758.59;;;19.43;100.00
61026;BME280;46911;32.650;-16.902;2023-10-31T07:00:15;100763.00;;;19.44;100.00
61026;BME280;46911;32.650;-16.902;2023-10-31T07:02:20;100757.94;;;19.40;100.00
61026;BME280;46911;32.650;-16.902;2023-10-31T07:04:21;100763.72;;;19.46;100.00
61026;BME280;46911;32.650;-16.902;2023-10-31T07:06:25;100768.41;;;19.44;100.00
61026;BME280;46911;32.650;-16.902;2023-10-31T07:08:29;100774.69;;;19.44;100.00
61026;BME280;46911;32.650;-16.902;2023-10-31T07:10:32;100775.91;;;19.50;100.00
61026;BME280;46911;32.650;-16.902;2023-10-31T07:12:33;100780.56;;;19.39;100.00
61026;BME280;46911;32.650;-16.902;2023-10-31T07:14:34;100774.16;;;19.40;100.00
61026;BME280;46911;32.650;-16.902;2023-10-31T07:16:35;100776.84;;;19.40;100.00
61026;BME280;46911;32.650;-16.902;2023-10-31T07:18:38;100780.22;;;19.43;100.00
61026;BME280;46911;32.650;-16.902;2023-10-31T07:20:40;100779.56;;;19.40;100.00
61026;BME280;46911;32.650;-16.902;2023-10-31T07:22:40;100772.13;;;19.43;100.00
61026;BME280;46911;32.650;-16.902;2023-10-31T07:24:42;100776.00;;;19.40;100.00
61026;BME280;46911;32.650;-16.902;2023-10-31T07:26:48;100777.88;;;19.39;100.00
61026;BME280;46911;32.650;-16.902;2023-10-31T07:28:53;100782.59;;;19.37;100.00
61026;BME280;46911;32.650;-16.902;2023-10-31T07:30:54;100773.09;;;19.33;100.00
61026;BME280;46911;32.650;-16.902;2023-10-31T07:32:57;100766.63;;;19.26;100.00
61026;BME280;46911;32.650;-16.902;2023-10-31T07:34:58;100768.84;;;19.31;100.00
61026;BME280;46911;32.650;-16.902;2023-10-31T07:37:02;100775.78;;;19.33;100.00
61026;BME280;46911;32.650;-16.902;2023-10-31T07:39:05;100785.31;;;19.37;100.00
61026;BME280;46911;32.650;-16.902;2023-10-31T07:41:06;100784.44;;;19.37;100.00
61026;BME280;46911;32.650;-16.902;2023-10-31T07:43:07;100779.78;;;19.47;100.00
61026;BME280;46911;32.650;-16.902;2023-10-31T07:45:08;100781.47;;;19.48;100.00
61026;BME280;46911;32.650;-16.902;2023-10-31T07:47:09;100785.22;;;19.55;100.00
61026;BME280;46911;32.650;-16.902;2023-10-31T07:49:13;100790.84;;;19.62;100.00
61026;BME280;46911;32.650;-16.902;2023-10-31T07:51:13;100794.38;;;19.63;100.00
61026;BME280;46911;32.650;-16.902;2023-10-31T07:53:17;100788.28;;;19.61;100.00
61026;BME280;46911;32.650;-16.902;2023-10-31T07:55:21;100803.06;;;19.74;98.53
61026;BME280;46911;32.650;-16.902;2023-10-31T07:57:22;100815.41;;;19.77;95.75
61026;BME280;46911;32.650;-16.902;2023-10-31T07:59:25;100806.19;;;19.88;96.98
61026;BME280;46911;32.650;-16.902;2023-10-31T08:01:26;100805.88;;;19.91;98.48
61026;BME280;46911;32.650;-16.902;2023-10-31T08:03:28;100811.59;;;19.88;94.34
61026;BME280;46911;32.650;-16.902;2023-10-31T08:05:32;100822.13;;;19.91;90.09
61026;BME280;46911;32.650;-16.902;2023-10-31T08:07:36;100829.13;;;20.10;90.32
61026;BME280;46911;32.650;-16.902;2023-10-31T08:09:37;100843.50;;;20.11;91.39
61026;BME280;46911;32.650;-16.902;2023-10-31T08:11:40;100847.94;;;20.20;91.76
61026;BME280;46911;32.650;-16.902;2023-10-31T08:13:43;100851.00;;;20.25;92.43
61026;BME280;46911;32.650;-16.902;2023-10-31T08:15:46;100845.75;;;20.23;92.84
61026;BME280;46911;32.650;-16.902;2023-10-31T08:17:50;100856.94;;;20.29;93.33
61026;BME280;46911;32.650;-16.902;2023-10-31T08:19:55;100878.09;;;20.33;93.62
61026;BME280;46911;32.650;-16.902;2023-10-31T08:21:56;100882.34;;;20.36;94.33
61026;BME280;46911;32.650;-16.902;2023-10-31T08:23:57;100882.53;;;20.34;94.64
61026;BME280;46911;32.650;-16.902;2023-10-31T08:25:58;100900.66;;;20.42;94.82
61026;BME280;46911;32.650;-16.902;2023-10-31T08:28:00;100914.41;;;20.49;95.21
61026;BME280;46911;32.650;-16.902;2023-10-31T08:30:01;100916.09;;;20.50;95.25
61026;BME280;46911;32.650;-16.902;2023-10-31T08:32:03;100925.78;;;20.52;94.74
61026;BME280;46911;32.650;-16.902;2023-10-31T08:34:04;100930.50;;;20.50;94.42
61026;BME280;46911;32.650;-16.902;2023-10-31T08:36:05;100940.16;;;20.53;94.60
61026;BME280;46911;32.650;-16.902;2023-10-31T08:38:07;100940.00;;;20.54;94.15
61026;BME280;46911;32.650;-16.902;2023-10-31T08:40:08;100945.06;;;20.57;94.12
61026;BME280;46911;32.650;-16.902;2023-10-31T08:42:09;100935.09;;;20.58;94.74
61026;BME280;46911;32.650;-16.902;2023-10-31T08:44:10;100932.69;;;20.55;95.07
61026;BME280;46911;32.650;-16.902;2023-10-31T08:46:14;100945.66;;;20.69;95.48
61026;BME280;46911;32.650;-16.902;2023-10-31T08:48:15;100947.53;;;20.77;94.76
61026;BME280;46911;32.650;-16.902;2023-10-31T08:50:16;100947.72;;;20.84;94.46
61026;BME280;46911;32.650;-16.902;2023-10-31T08:52:22;100945.72;;;20.86;93.54
61026;BME280;46911;32.650;-16.902;2023-10-31T08:54:23;100954.19;;;20.99;93.10
61026;BME280;46911;32.650;-16.902;2023-10-31T08:56:24;100951.50;;;21.07;92.43
61026;BME280;46911;32.650;-16.902;2023-10-31T08:58:25;100947.59;;;21.10;91.08
61026;BME280;46911;32.650;-16.902;2023-10-31T09:00:28;100956.94;;;21.24;89.55
61026;BME280;46911;32.650;-16.902;2023-10-31T09:02:29;100959.63;;;21.40;89.62
61026;BME280;46911;32.650;-16.902;2023-10-31T09:04:37;100936.44;;;21.38;88.51
61026;BME280;46911;32.650;-16.902;2023-10-31T09:06:38;100959.00;;;21.55;88.36
61026;BME280;46911;32.650;-16.902;2023-10-31T09:08:41;100960.00;;;21.70;88.52
61026;BME280;46911;32.650;-16.902;2023-10-31T09:10:43;100972.19;;;21.83;87.47
61026;BME280;46911;32.650;-16.902;2023-10-31T09:12:46;100977.78;;;21.89;86.98
61026;BME280;46911;32.650;-16.902;2023-10-31T09:14:47;100976.94;;;21.97;87.22
61026;BME280;46911;32.650;-16.902;2023-10-31T09:16:48;100977.75;;;22.06;87.28
61026;BME280;46911;32.650;-16.902;2023-10-31T09:18:52;100982.28;;;22.22;87.20
61026;BME280;46911;32.650;-16.902;2023-10-31T09:20:53;100985.00;;;22.38;87.09
61026;BME280;46911;32.650;-16.902;2023-10-31T09:22:54;100990.34;;;22.55;86.25
61026;BME280;46911;32.650;-16.902;2023-10-31T09:24:55;100988.91;;;22.76;84.33
61026;BME280;46911;32.650;-16.902;2023-10-31T09:26:56;100997.84;;;22.84;83.71
61026;BME280;46911;32.650;-16.902;2023-10-31T09:28:56;101009.00;;;22.66;81.23
61026;BME280;46911;32.650;-16.902;2023-10-31T09:30:57;101017.13;;;22.02;79.42
61026;BME280;46911;32.650;-16.902;2023-10-31T09:33:00;101019.88;;;21.94;80.91
61026;BME280;46911;32.650;-16.902;2023-10-31T09:35:04;101025.97;;;22.04;81.52
61026;BME280;46911;32.650;-16.902;2023-10-31T09:37:08;101025.13;;;21.95;81.39
61026;BME280;46911;32.650;-16.902;2023-10-31T09:39:09;101023.09;;;22.05;81.09
61026;BME280;46911;32.650;-16.902;2023-10-31T09:41:13;101030.06;;;22.00;81.76
61026;BME280;46911;32.650;-16.902;2023-10-31T09:43:15;101027.53;;;21.90;82.72
61026;BME280;46911;32.650;-16.902;2023-10-31T09:45:19;101034.31;;;21.86;82.97
61026;BME280;46911;32.650;-16.902;2023-10-31T09:47:20;101034.66;;;21.74;83.48
61026;BME280;46911;32.650;-16.902;2023-10-31T09:49:21;101043.13;;;21.55;82.93
61026;BME280;46911;32.650;-16.902;2023-10-31T09:51:23;101056.66;;;21.38;83.68
61026;BME280;46911;32.650;-16.902;2023-10-31T09:53:27;101058.69;;;21.36;83.56
61026;BME280;46911;32.650;-16.902;2023-10-31T09:55:34;101070.06;;;21.40;83.36
61026;BME280;46911;32.650;-16.902;2023-10-31T09:57:36;101076.00;;;21.35;83.48
61026;BME280;46911;32.650;-16.902;2023-10-31T09:59:39;101079.03;;;21.40;83.06
61026;BME280;46911;32.650;-16.902;2023-10-31T10:01:45;101083.63;;;21.40;82.80
61026;BME280;46911;32.650;-16.902;2023-10-31T10:03:46;101084.38;;;21.59;82.72
61026;BME280;46911;32.650;-16.902;2023-10-31T10:05:48;101082.84;;;21.72;82.35
61026;BME280;46911;32.650;-16.902;2023-10-31T10:07:49;101092.84;;;21.88;81.56
61026;BME280;46911;32.650;-16.902;2023-10-31T10:09:51;101093.72;;;21.89;80.72
61026;BME280;46911;32.650;-16.902;2023-10-31T10:11:52;101093.22;;;21.77;81.58
61026;BME280;46911;32.650;-16.902;2023-10-31T10:13:59;101117.13;;;21.73;82.58
61026;BME280;46911;32.650;-16.902;2023-10-31T10:16:02;101114.34;;;21.49;82.57
61026;BME280;46911;32.650;-16.902;2023-10-31T10:18:03;101116.00;;;21.33;84.79